Time;durP1;ratioP1;P1;durP2;ratioP2;P2;SDS_P1;SDS_P2;PMS_P1;PMS_P2;Temp;Humidity;BMP_temperature;BMP_pressure;BME280_temperature;BME280_humidity;BME280_pressure;Samples;Min_cycle;Max_cycle;Signal;HPM_P1;HPM_P2
2023/05/26 00:01:14;;;;;;;17.55;8.32;;;;;;;;;;4980392;28;20046;-40
2023/05/26 00:03:48;;;;;;;13.18;7.32;;;;;;;;;;4985038;28;20038;-41
2023/05/26 00:06:16;;;;;;;10.10;7.13;;;;;;;;;;4980558;28;20518;-44
2023/05/26 00:08:42;;;;;;;12.77;7.20;;;;;;;;;;4984074;28;20030;-41
2023/05/26 00:11:07;;;;;;;8.02;6.38;;;;;;;;;;4980931;28;20468;-41
2023/05/26 00:13:33;;;;;;;9.93;6.50;;;;;;;;;;4984211;28;20018;-42
2023/05/26 00:16:00;;;;;;;11.00;5.93;;;;;;;;;;4981692;28;20101;-41
2023/05/26 00:18:26;;;;;;;9.48;6.68;;;;;;;;;;4984195;28;20113;-41
2023/05/26 00:20:52;;;;;;;14.35;5.35;;;;;;;;;;4985897;28;20050;-45
2023/05/26 00:23:18;;;;;;;11.20;5.38;;;;;;;;;;4979988;28;20030;-41
2023/05/26 00:25:43;;;;;;;7.80;5.30;;;;;;;;;;4982341;28;20509;-41
2023/05/26 00:28:08;;;;;;;9.48;4.82;;;;;;;;;;4982733;28;20030;-44
2023/05/26 00:30:34;;;;;;;8.52;4.80;;;;;;;;;;4983702;28;20049;-40
2023/05/26 00:32:59;;;;;;;6.30;4.72;;;;;;;;;;4983228;28;20121;-41
2023/05/26 00:35:25;;;;;;;8.15;4.85;;;;;;;;;;4989596;28;20031;-43
2023/05/26 00:37:50;;;;;;;10.95;4.90;;;;;;;;;;4978930;28;20042;-44
2023/05/26 00:40:16;;;;;;;10.45;5.28;;;;;;;;;;4981930;28;20023;-40
2023/05/26 00:42:41;;;;;;;7.63;5.00;;;;;;;;;;4978582;28;20043;-42
2023/05/26 00:45:07;;;;;;;9.70;5.38;;;;;;;;;;4984297;28;20022;-44
2023/05/26 00:47:32;;;;;;;8.18;4.93;;;;;;;;;;4983553;28;20038;-42
2023/05/26 00:49:58;;;;;;;8.57;5.18;;;;;;;;;;4983845;28;20058;-40
2023/05/26 00:52:24;;;;;;;10.27;5.35;;;;;;;;;;4982165;28;20411;-43
2023/05/26 00:54:49;;;;;;;11.70;5.40;;;;;;;;;;4982226;28;20562;-44
2023/05/26 00:57:15;;;;;;;10.32;5.53;;;;;;;;;;4985314;28;20050;-41
2023/05/26 00:59:41;;;;;;;11.23;5.78;;;;;;;;;;4982667;28;20023;-41
2023/05/26 01:02:06;;;;;;;9.30;5.68;;;;;;;;;;4985875;28;20030;-41
2023/05/26 01:04:32;;;;;;;8.35;5.68;;;;;;;;;;4986642;28;20044;-42
2023/05/26 01:06:57;;;;;;;9.63;5.43;;;;;;;;;;4985230;28;20157;-41
2023/05/26 01:09:23;;;;;;;8.75;5.50;;;;;;;;;;4986800;28;20097;-41
2023/05/26 01:12:05;;;;;;;9.70;5.55;;;;;;;;;;4987863;28;20137;-43
2023/05/26 01:14:31;;;;;;;10.05;6.00;;;;;;;;;;4988440;28;20443;-41
2023/05/26 01:17:09;;;;;;;11.27;5.10;;;;;;;;;;4984905;28;20050;-44
2023/05/26 01:19:59;;;;;;;14.25;5.22;;;;;;;;;;4989327;28;20022;-44
2023/05/26 01:22:48;;;;;;;18.45;5.30;;;;;;;;;;4987106;28;20145;-43
2023/05/26 01:25:39;;;;;;;10.35;6.05;;;;;;;;;;4990154;28;20042;-40
2023/05/26 01:28:06;;;;;;;8.30;5.10;;;;;;;;;;4984246;28;20122;-42
2023/05/26 01:30:36;;;;;;;13.85;5.05;;;;;;;;;;4986071;28;20037;-41
2023/05/26 01:33:02;;;;;;;6.85;5.15;;;;;;;;;;4984162;28;20030;-42
2023/05/26 01:35:28;;;;;;;13.68;5.43;;;;;;;;;;4990304;28;20038;-41
2023/05/26 01:37:54;;;;;;;9.65;5.30;;;;;;;;;;4984794;28;20471;-41
2023/05/26 01:40:20;;;;;;;9.00;4.95;;;;;;;;;;4984844;28;20084;-43
2023/05/26 01:42:55;;;;;;;6.88;5.18;;;;;;;;;;4983922;28;20072;-43
2023/05/26 01:45:24;;;;;;;11.05;5.40;;;;;;;;;;4983074;28;20033;-44
2023/05/26 01:47:53;;;;;;;13.93;5.20;;;;;;;;;;4985766;28;20375;-46
2023/05/26 01:50:22;;;;;;;10.07;5.78;;;;;;;;;;4983355;28;20391;-44
2023/05/26 01:52:51;;;;;;;10.18;4.97;;;;;;;;;;4986840;28;20094;-41
2023/05/26 01:55:20;;;;;;;11.23;5.53;;;;;;;;;;4986288;28;20057;-42
2023/05/26 01:57:46;;;;;;;9.00;5.35;;;;;;;;;;4985675;28;20069;-40
2023/05/26 02:00:12;;;;;;;9.45;5.30;;;;;;;;;;4987528;28;20057;-41
2023/05/26 02:02:37;;;;;;;8.55;5.30;;;;;;;;;;4988449;28;20500;-43
2023/05/26 02:05:03;;;;;;;10.65;5.55;;;;;;;;;;4986812;28;20049;-41
2023/05/26 02:07:29;;;;;;;7.45;5.25;;;;;;;;;;4983651;28;20034;-40
2023/05/26 02:09:55;;;;;;;7.53;4.95;;;;;;;;;;4984148;28;20029;-41
2023/05/26 02:12:20;;;;;;;9.48;4.75;;;;;;;;;;4984168;28;20077;-45
2023/05/26 02:14:45;;;;;;;12.95;5.00;;;;;;;;;;4986981;28;20033;-44
2023/05/26 02:17:11;;;;;;;8.20;4.85;;;;;;;;;;4986645;28;20198;-40
2023/05/26 02:19:36;;;;;;;9.25;5.15;;;;;;;;;;4986375;28;20022;-43
2023/05/26 02:22:02;;;;;;;10.18;5.22;;;;;;;;;;4985024;28;20487;-44
2023/05/26 02:24:27;;;;;;;12.50;5.32;;;;;;;;;;4984617;28;20618;-40
2023/05/26 02:26:52;;;;;;;9.65;5.68;;;;;;;;;;4983802;28;20050;-47
2023/05/26 02:29:18;;;;;;;13.65;5.18;;;;;;;;;;4985088;28;20439;-43
2023/05/26 02:31:43;;;;;;;10.25;5.55;;;;;;;;;;4985643;28;20038;-44
2023/05/26 02:34:10;;;;;;;10.57;5.38;;;;;;;;;;4987370;28;20030;-40
2023/05/26 02:36:36;;;;;;;8.68;5.38;;;;;;;;;;4984414;28;20129;-41
2023/05/26 02:39:01;;;;;;;8.55;4.80;;;;;;;;;;4987979;28;20077;-43
2023/05/26 02:41:27;;;;;;;9.13;5.28;;;;;;;;;;4983330;28;20557;-43
2023/05/26 02:43:52;;;;;;;7.32;4.75;;;;;;;;;;4985617;28;20487;-41
2023/05/26 02:46:18;;;;;;;14.52;5.20;;;;;;;;;;4984816;28;20146;-40
2023/05/26 02:48:43;;;;;;;9.55;5.32;;;;;;;;;;4980791;28;20015;-40
2023/05/26 02:51:08;;;;;;;11.30;4.97;;;;;;;;;;4983251;28;20038;-41
2023/05/26 02:53:34;;;;;;;9.57;4.32;;;;;;;;;;4984349;28;20081;-43
2023/05/26 02:55:59;;;;;;;8.05;4.40;;;;;;;;;;4982971;28;20031;-44
2023/05/26 02:58:25;;;;;;;10.85;4.65;;;;;;;;;;4981259;28;20092;-40
2023/05/26 03:00:50;;;;;;;9.70;4.22;;;;;;;;;;4985036;28;20514;-40
2023/05/26 03:03:16;;;;;;;10.15;4.72;;;;;;;;;;4989379;28;20022;-46
2023/05/26 03:05:42;;;;;;;12.40;4.47;;;;;;;;;;4980298;28;20149;-43
2023/05/26 03:08:07;;;;;;;8.75;3.83;;;;;;;;;;4981956;28;20078;-42
2023/05/26 03:10:33;;;;;;;10.00;3.50;;;;;;;;;;4980885;28;20042;-46
2023/05/26 03:12:59;;;;;;;13.75;4.10;;;;;;;;;;4984849;28;20141;-40
2023/05/26 03:15:26;;;;;;;11.60;3.80;;;;;;;;;;4985173;28;20121;-40
2023/05/26 03:17:51;;;;;;;12.15;4.55;;;;;;;;;;4983093;28;20096;-44
2023/05/26 03:20:17;;;;;;;9.27;3.70;;;;;;;;;;4985213;28;20463;-44
2023/05/26 03:22:42;;;;;;;12.88;3.38;;;;;;;;;;4984486;28;21627;-44
2023/05/26 03:25:07;;;;;;;12.27;3.03;;;;;;;;;;4983698;28;20365;-43
2023/05/26 03:27:34;;;;;;;10.65;3.55;;;;;;;;;;4981830;28;20047;-41
2023/05/26 03:30:00;;;;;;;5.43;3.30;;;;;;;;;;4980799;28;20034;-46
2023/05/26 03:32:25;;;;;;;11.10;3.55;;;;;;;;;;4986288;28;20041;-41
2023/05/26 03:34:51;;;;;;;9.07;3.38;;;;;;;;;;4985854;28;20053;-42
2023/05/26 03:37:16;;;;;;;14.15;3.22;;;;;;;;;;4984451;28;20050;-44
2023/05/26 03:39:42;;;;;;;9.20;3.13;;;;;;;;;;4984383;28;20029;-42
2023/05/26 03:42:08;;;;;;;9.57;3.35;;;;;;;;;;4982489;28;20077;-40
2023/05/26 03:44:34;;;;;;;6.03;3.25;;;;;;;;;;4984740;28;20038;-49
2023/05/26 03:47:00;;;;;;;10.93;3.25;;;;;;;;;;4982388;28;20034;-40
2023/05/26 03:49:25;;;;;;;4.03;2.58;;;;;;;;;;4980831;28;20030;-45
2023/05/26 03:51:50;;;;;;;7.78;3.10;;;;;;;;;;4982572;28;20031;-45
2023/05/26 03:54:16;;;;;;;11.32;3.25;;;;;;;;;;4982811;28;20068;-44
2023/05/26 03:56:41;;;;;;;7.32;2.95;;;;;;;;;;4986470;28;20038;-41
2023/05/26 03:59:07;;;;;;;8.90;3.25;;;;;;;;;;4980640;28;20037;-41
2023/05/26 04:01:33;;;;;;;7.20;3.08;;;;;;;;;;4982314;28;20106;-40
2023/05/26 04:03:58;;;;;;;15.85;3.17;;;;;;;;;;4984490;28;20033;-43
2023/05/26 04:06:23;;;;;;;15.90;3.35;;;;;;;;;;4981618;28;20052;-41
2023/05/26 04:08:49;;;;;;;14.82;3.40;;;;;;;;;;4984360;28;20088;-43
2023/05/26 04:11:16;;;;;;;7.80;3.40;;;;;;;;;;4983156;28;20030;-41
2023/05/26 04:13:41;;;;;;;12.57;3.38;;;;;;;;;;4983412;28;20031;-41
2023/05/26 04:16:07;;;;;;;8.13;3.10;;;;;;;;;;4984451;28;20034;-41
2023/05/26 04:18:33;;;;;;;11.45;3.75;;;;;;;;;;4982799;28;20027;-44
2023/05/26 04:20:59;;;;;;;4.85;2.85;;;;;;;;;;4983563;28;20546;-41
2023/05/26 04:23:24;;;;;;;7.63;3.15;;;;;;;;;;4982980;28;20035;-44
2023/05/26 04:25:50;;;;;;;9.70;3.60;;;;;;;;;;4979274;28;20487;-42
2023/05/26 04:28:15;;;;;;;11.05;3.50;;;;;;;;;;4978490;28;20096;-41
2023/05/26 04:30:42;;;;;;;6.07;2.78;;;;;;;;;;4982236;28;20044;-47
2023/05/26 04:33:09;;;;;;;11.25;4.03;;;;;;;;;;4983026;28;21518;-40
2023/05/26 04:35:35;;;;;;;7.30;3.95;;;;;;;;;;4985764;28;20022;-40
2023/05/26 04:38:00;;;;;;;10.45;3.50;;;;;;;;;;4980678;28;20081;-42
2023/05/26 04:40:25;;;;;;;8.50;3.63;;;;;;;;;;4982040;28;20034;-41
2023/05/26 04:42:51;;;;;;;6.47;2.92;;;;;;;;;;4983525;28;20035;-42
2023/05/26 04:45:17;;;;;;;5.78;3.00;;;;;;;;;;4982478;28;20029;-45
2023/05/26 04:47:42;;;;;;;7.85;3.10;;;;;;;;;;4984954;28;20428;-42
2023/05/26 04:50:12;;;;;;;8.57;2.80;;;;;;;;;;4982537;28;20022;-41
2023/05/26 04:52:39;;;;;;;6.75;3.00;;;;;;;;;;4984182;28;20034;-42
2023/05/26 04:55:06;;;;;;;8.68;2.65;;;;;;;;;;4982373;28;20027;-43
2023/05/26 04:57:31;;;;;;;6.90;2.92;;;;;;;;;;4978819;28;20037;-41
2023/05/26 04:59:57;;;;;;;9.48;2.95;;;;;;;;;;4987010;28;20105;-41
2023/05/26 05:02:22;;;;;;;7.82;3.40;;;;;;;;;;4985594;28;20038;-41
2023/05/26 05:04:47;;;;;;;10.10;3.22;;;;;;;;;;4983694;28;20594;-41
2023/05/26 05:07:13;;;;;;;4.78;3.28;;;;;;;;;;4982698;28;20504;-40
2023/05/26 05:09:38;;;;;;;7.25;2.70;;;;;;;;;;4982520;28;20030;-42
2023/05/26 05:12:04;;;;;;;8.27;3.00;;;;;;;;;;4980119;28;20054;-43
2023/05/26 05:14:30;;;;;;;7.93;3.28;;;;;;;;;;4978578;28;20042;-40
2023/05/26 05:16:55;;;;;;;7.55;2.78;;;;;;;;;;4984437;28;20569;-40
2023/05/26 05:19:20;;;;;;;7.97;2.70;;;;;;;;;;4977066;28;20589;-41
2023/05/26 05:21:46;;;;;;;5.28;3.58;;;;;;;;;;4973326;28;20047;-42
2023/05/26 05:24:11;;;;;;;4.90;2.75;;;;;;;;;;4978335;28;20460;-42
2023/05/26 05:26:37;;;;;;;7.20;3.13;;;;;;;;;;4976175;28;20522;-40
2023/05/26 05:29:03;;;;;;;7.32;2.90;;;;;;;;;;4976153;28;20053;-41
2023/05/26 05:31:29;;;;;;;8.02;2.85;;;;;;;;;;4978591;28;20070;-43
2023/05/26 05:33:54;;;;;;;8.13;3.17;;;;;;;;;;4972424;28;20068;-41
2023/05/26 05:36:19;;;;;;;6.38;2.95;;;;;;;;;;4978400;28;20055;-41
2023/05/26 05:38:45;;;;;;;10.05;2.72;;;;;;;;;;4980855;28;20031;-41
2023/05/26 05:41:10;;;;;;;7.07;2.65;;;;;;;;;;4975444;28;20046;-41
2023/05/26 05:43:36;;;;;;;6.97;2.75;;;;;;;;;;4964186;28;20038;-44
2023/05/26 05:46:01;;;;;;;4.78;2.83;;;;;;;;;;4974217;28;20054;-44
2023/05/26 05:48:26;;;;;;;5.45;2.85;;;;;;;;;;4975382;28;20046;-44
2023/05/26 05:50:52;;;;;;;7.72;2.90;;;;;;;;;;4985563;28;20046;-44
2023/05/26 05:53:17;;;;;;;5.85;3.13;;;;;;;;;;4987133;28;20384;-41
2023/05/26 05:55:43;;;;;;;9.43;2.58;;;;;;;;;;4975715;28;20042;-42
2023/05/26 05:58:08;;;;;;;7.22;2.65;;;;;;;;;;4980439;28;20475;-41
2023/05/26 06:00:34;;;;;;;8.40;2.50;;;;;;;;;;4977861;28;20126;-41
2023/05/26 06:02:59;;;;;;;7.82;2.90;;;;;;;;;;4979626;28;20376;-41
2023/05/26 06:05:25;;;;;;;8.10;2.65;;;;;;;;;;4978886;28;20027;-41
2023/05/26 06:07:50;;;;;;;9.98;3.47;;;;;;;;;;4978792;28;20543;-41
2023/05/26 06:10:16;;;;;;;9.20;3.05;;;;;;;;;;4983465;28;20088;-42
2023/05/26 06:12:41;;;;;;;6.43;3.40;;;;;;;;;;4972522;28;20031;-43
2023/05/26 06:15:07;;;;;;;6.47;2.63;;;;;;;;;;4981103;28;20081;-42
2023/05/26 06:17:33;;;;;;;13.05;2.40;;;;;;;;;;4977374;28;20077;-44
2023/05/26 06:19:58;;;;;;;5.70;2.45;;;;;;;;;;4979497;28;20450;-45
2023/05/26 06:22:23;;;;;;;6.00;2.90;;;;;;;;;;4982573;28;20031;-42
2023/05/26 06:24:49;;;;;;;3.85;2.53;;;;;;;;;;4984291;28;20391;-42
2023/05/26 06:27:15;;;;;;;9.20;2.80;;;;;;;;;;4985641;28;20035;-43
2023/05/26 06:29:40;;;;;;;5.68;2.28;;;;;;;;;;4983743;28;20026;-46
2023/05/26 06:32:05;;;;;;;26.50;3.55;;;;;;;;;;4980725;28;20067;-41
2023/05/26 06:34:31;;;;;;;10.00;2.53;;;;;;;;;;4985536;28;21097;-43
2023/05/26 06:36:56;;;;;;;6.57;2.80;;;;;;;;;;4984399;28;20054;-47
2023/05/26 06:39:23;;;;;;;10.82;2.70;;;;;;;;;;4986731;28;20026;-44
2023/05/26 06:41:49;;;;;;;8.25;2.92;;;;;;;;;;4985197;28;20062;-42
2023/05/26 06:44:15;;;;;;;4.65;2.55;;;;;;;;;;4982276;28;20073;-41
2023/05/26 06:46:40;;;;;;;9.38;3.05;;;;;;;;;;4983585;28;20239;-43
2023/05/26 06:49:05;;;;;;;10.98;2.75;;;;;;;;;;4984648;28;20133;-43
2023/05/26 06:51:31;;;;;;;9.70;3.20;;;;;;;;;;4987298;28;20550;-46
2023/05/26 06:53:56;;;;;;;3.63;2.42;;;;;;;;;;4980394;28;20019;-41
2023/05/26 06:56:21;;;;;;;4.38;2.53;;;;;;;;;;4984225;28;20043;-46
2023/05/26 06:58:47;;;;;;;6.72;2.72;;;;;;;;;;4983497;28;20031;-44
2023/05/26 07:01:12;;;;;;;4.95;2.72;;;;;;;;;;4978060;28;20050;-41
2023/05/26 07:03:38;;;;;;;8.85;2.75;;;;;;;;;;4981228;28;20030;-41
2023/05/26 07:06:03;;;;;;;8.00;2.72;;;;;;;;;;4984075;28;20578;-44
2023/05/26 07:08:29;;;;;;;7.15;3.17;;;;;;;;;;4983371;28;20034;-46
2023/05/26 07:10:54;;;;;;;9.68;3.03;;;;;;;;;;4979217;28;20491;-46
2023/05/26 07:13:20;;;;;;;7.65;2.92;;;;;;;;;;4981524;28;20038;-46
2023/05/26 07:15:45;;;;;;;8.35;2.58;;;;;;;;;;4984422;28;20042;-45
2023/05/26 07:18:11;;;;;;;5.72;2.92;;;;;;;;;;4986297;28;20061;-44
2023/05/26 07:20:36;;;;;;;4.78;2.50;;;;;;;;;;4982334;28;20034;-49
2023/05/26 07:23:02;;;;;;;12.68;3.47;;;;;;;;;;4982139;28;20038;-44
2023/05/26 07:25:28;;;;;;;8.20;2.67;;;;;;;;;;4984150;28;20448;-43
2023/05/26 07:27:54;;;;;;;6.03;2.50;;;;;;;;;;4984600;28;20035;-42
2023/05/26 07:30:19;;;;;;;4.65;2.70;;;;;;;;;;4980771;28;20038;-43
2023/05/26 07:32:45;;;;;;;7.20;2.78;;;;;;;;;;4979418;28;20038;-42
2023/05/26 07:35:11;;;;;;;6.75;2.67;;;;;;;;;;4981181;28;20137;-44
2023/05/26 07:37:37;;;;;;;7.45;3.10;;;;;;;;;;4983730;28;20046;-45
2023/05/26 07:40:04;;;;;;;19.38;3.35;;;;;;;;;;4982572;28;20694;-45
2023/05/26 07:42:30;;;;;;;8.75;3.08;;;;;;;;;;4982597;28;20492;-42
2023/05/26 07:44:55;;;;;;;5.55;2.70;;;;;;;;;;5011868;28;20066;-47
2023/05/26 07:47:22;;;;;;;6.32;2.70;;;;;;;;;;4984612;28;20045;-45
2023/05/26 07:49:47;;;;;;;6.93;2.53;;;;;;;;;;4981289;28;20065;-47
2023/05/26 07:52:13;;;;;;;7.32;3.35;;;;;;;;;;4982288;28;20065;-42
2023/05/26 07:54:40;;;;;;;13.48;3.00;;;;;;;;;;4983219;28;20034;-42
2023/05/26 07:57:05;;;;;;;14.35;3.28;;;;;;;;;;4981935;28;20057;-45
2023/05/26 07:59:31;;;;;;;15.25;3.95;;;;;;;;;;4985141;28;20487;-51
2023/05/26 08:01:56;;;;;;;10.95;3.67;;;;;;;;;;4982745;28;20088;-45
2023/05/26 08:04:22;;;;;;;6.38;2.75;;;;;;;;;;4985565;28;20087;-42
2023/05/26 08:06:47;;;;;;;11.25;3.05;;;;;;;;;;4982777;28;20030;-43
2023/05/26 08:09:12;;;;;;;9.77;3.42;;;;;;;;;;4982578;28;20395;-43
2023/05/26 08:11:38;;;;;;;10.35;4.07;;;;;;;;;;4980603;28;20031;-48
2023/05/26 08:14:03;;;;;;;9.70;3.20;;;;;;;;;;4982880;28;20045;-46
2023/05/26 08:16:28;;;;;;;11.48;3.10;;;;;;;;;;4984968;28;20050;-48
2023/05/26 08:18:54;;;;;;;13.52;3.38;;;;;;;;;;4984015;28;20467;-46
2023/05/26 08:21:19;;;;;;;11.75;3.30;;;;;;;;;;4981800;28;20049;-42
2023/05/26 08:23:45;;;;;;;13.88;3.45;;;;;;;;;;4984742;28;20043;-47
2023/05/26 08:26:10;;;;;;;7.95;3.33;;;;;;;;;;4977415;28;20101;-44
2023/05/26 08:28:36;;;;;;;8.52;3.20;;;;;;;;;;4978275;28;20719;-44
2023/05/26 08:31:01;;;;;;;12.88;3.72;;;;;;;;;;4978245;28;20603;-46
2023/05/26 08:33:26;;;;;;;8.13;3.20;;;;;;;;;;4981186;28;20027;-43
2023/05/26 08:35:52;;;;;;;8.88;3.47;;;;;;;;;;4984834;28;20053;-50
2023/05/26 08:38:17;;;;;;;14.93;3.63;;;;;;;;;;4983834;28;20029;-45
2023/05/26 08:40:42;;;;;;;16.88;4.40;;;;;;;;;;4980258;28;20055;-47
2023/05/26 08:43:12;;;;;;;8.60;3.60;;;;;;;;;;4980799;28;20034;-50
2023/05/26 08:45:37;;;;;;;9.70;4.20;;;;;;;;;;4982788;28;20114;-47
2023/05/26 08:48:07;;;;;;;8.30;4.25;;;;;;;;;;4981806;28;20105;-45
2023/05/26 08:50:33;;;;;;;10.43;3.22;;;;;;;;;;4979539;28;20026;-45
2023/05/26 08:53:00;;;;;;;7.90;3.78;;;;;;;;;;4981566;28;20617;-45
2023/05/26 08:55:31;;;;;;;8.77;3.88;;;;;;;;;;4983740;28;20022;-43
2023/05/26 08:57:58;;;;;;;16.13;4.20;;;;;;;;;;4985160;28;20027;-47
2023/05/26 09:00:25;;;;;;;9.48;4.00;;;;;;;;;;4981812;28;20029;-50
2023/05/26 09:02:50;;;;;;;9.10;3.78;;;;;;;;;;4982245;28;20400;-45
2023/05/26 09:05:16;;;;;;;12.60;4.25;;;;;;;;;;4982618;28;20030;-47
2023/05/26 09:07:41;;;;;;;11.77;3.92;;;;;;;;;;4981660;28;20042;-45
2023/05/26 09:10:24;;;;;;;12.18;4.35;;;;;;;;;;4986324;28;20026;-44
2023/05/26 09:13:02;;;;;;;21.60;4.15;;;;;;;;;;4982875;28;20046;-49
2023/05/26 09:15:27;;;;;;;17.08;4.75;;;;;;;;;;4978552;28;20084;-44
2023/05/26 09:17:52;;;;;;;11.13;4.47;;;;;;;;;;4983580;28;20439;-47
2023/05/26 09:20:19;;;;;;;9.88;4.30;;;;;;;;;;4982401;28;20492;-49
2023/05/26 09:22:45;;;;;;;17.67;4.45;;;;;;;;;;4981439;28;20503;-45
2023/05/26 09:25:11;;;;;;;14.38;4.10;;;;;;;;;;4988069;28;20093;-51
2023/05/26 09:27:36;;;;;;;9.73;4.38;;;;;;;;;;4986264;28;20043;-49
2023/05/26 09:30:04;;;;;;;12.57;4.40;;;;;;;;;;4985170;28;20110;-48
2023/05/26 09:32:31;;;;;;;17.27;4.55;;;;;;;;;;4983689;28;20043;-48
2023/05/26 09:34:59;;;;;;;9.15;4.45;;;;;;;;;;4986436;28;20031;-48
2023/05/26 09:37:29;;;;;;;13.20;4.38;;;;;;;;;;4984281;28;20038;-43
2023/05/26 09:40:05;;;;;;;13.50;4.97;;;;;;;;;;4984183;28;20028;-47
2023/05/26 09:42:31;;;;;;;12.02;4.50;;;;;;;;;;4983902;28;20121;-46
2023/05/26 09:44:56;;;;;;;14.20;3.92;;;;;;;;;;4987011;28;20465;-50
2023/05/26 09:47:22;;;;;;;11.13;4.25;;;;;;;;;;4986677;28;20101;-45
2023/05/26 09:49:47;;;;;;;6.93;4.10;;;;;;;;;;4987162;28;20030;-47
2023/05/26 09:52:13;;;;;;;8.65;3.35;;;;;;;;;;4983330;28;20058;-45
2023/05/26 09:54:38;;;;;;;11.10;3.90;;;;;;;;;;4985959;28;20027;-48
2023/05/26 09:57:05;;;;;;;9.32;3.95;;;;;;;;;;4985291;28;20034;-49
2023/05/26 09:59:37;;;;;;;7.18;3.88;;;;;;;;;;4982693;28;20550;-47
2023/05/26 10:02:21;;;;;;;14.40;3.42;;;;;;;;;;4987276;28;20039;-48
2023/05/26 10:04:47;;;;;;;11.55;4.20;;;;;;;;;;4985022;28;20030;-52
2023/05/26 10:07:15;;;;;;;15.32;3.95;;;;;;;;;;4984099;28;20043;-47
2023/05/26 10:09:42;;;;;;;8.07;3.42;;;;;;;;;;4987310;28;20018;-45
2023/05/26 10:12:11;;;;;;;8.52;3.30;;;;;;;;;;4984962;28;20046;-46
2023/05/26 10:14:36;;;;;;;8.40;3.28;;;;;;;;;;4985717;28;20030;-47
2023/05/26 10:17:03;;;;;;;7.22;3.42;;;;;;;;;;4984720;28;20108;-46
2023/05/26 10:19:30;;;;;;;8.45;3.63;;;;;;;;;;4980152;28;20030;-46
2023/05/26 10:22:00;;;;;;;9.05;3.47;;;;;;;;;;4984843;28;20078;-43
2023/05/26 10:24:38;;;;;;;10.90;3.67;;;;;;;;;;4982619;28;20105;-45
2023/05/26 10:27:16;;;;;;;6.53;3.67;;;;;;;;;;4981009;28;20039;-47
2023/05/26 10:29:51;;;;;;;13.95;3.63;;;;;;;;;;4987131;28;20492;-47
2023/05/26 10:32:46;;;;;;;9.68;3.35;;;;;;;;;;4981178;28;20523;-48
2023/05/26 10:35:24;;;;;;;10.68;3.40;;;;;;;;;;4983926;28;20042;-50
2023/05/26 10:37:58;;;;;;;14.13;3.88;;;;;;;;;;4980218;28;20038;-49
2023/05/26 10:40:31;;;;;;;8.30;3.67;;;;;;;;;;4983437;28;20050;-46
2023/05/26 10:43:01;;;;;;;6.82;3.33;;;;;;;;;;4984923;28;20073;-45
2023/05/26 10:45:32;;;;;;;7.95;3.25;;;;;;;;;;4984356;28;20097;-46
2023/05/26 10:48:05;;;;;;;7.47;3.25;;;;;;;;;;4985480;28;20031;-48
2023/05/26 10:50:59;;;;;;;10.40;3.33;;;;;;;;;;4983458;28;20026;-47
2023/05/26 10:53:29;;;;;;;8.05;3.60;;;;;;;;;;4983764;28;20077;-49
2023/05/26 10:55:58;;;;;;;11.70;3.35;;;;;;;;;;4982437;28;20125;-49
2023/05/26 10:58:29;;;;;;;12.35;4.00;;;;;;;;;;4983540;28;21304;-49
2023/05/26 11:00:58;;;;;;;8.85;3.22;;;;;;;;;;4982643;28;20522;-48
2023/05/26 11:03:44;;;;;;;7.25;3.35;;;;;;;;;;4984562;28;20128;-45
2023/05/26 11:06:12;;;;;;;8.40;3.75;;;;;;;;;;4984672;28;20054;-47
2023/05/26 11:08:40;;;;;;;8.30;3.80;;;;;;;;;;4983653;28;20027;-51
2023/05/26 11:11:10;;;;;;;7.97;3.05;;;;;;;;;;4982750;28;20129;-46
2023/05/26 11:13:47;;;;;;;13.15;3.42;;;;;;;;;;4983793;28;20042;-50
2023/05/26 11:16:24;;;;;;;6.63;3.08;;;;;;;;;;4980462;28;20047;-51
2023/05/26 11:18:53;;;;;;;9.00;3.60;;;;;;;;;;4983220;28;20769;-49
2023/05/26 11:21:23;;;;;;;7.30;3.13;;;;;;;;;;4980911;28;20038;-51
2023/05/26 11:23:55;;;;;;;10.82;3.50;;;;;;;;;;4983404;28;20053;-46
2023/05/26 11:26:22;;;;;;;6.70;3.05;;;;;;;;;;4982768;28;20046;-46
2023/05/26 11:28:47;;;;;;;7.55;2.95;;;;;;;;;;4982745;28;20041;-51
2023/05/26 11:31:17;;;;;;;9.38;3.63;;;;;;;;;;4981159;28;20026;-50
2023/05/26 11:33:44;;;;;;;9.27;3.30;;;;;;;;;;4984458;28;20018;-47
2023/05/26 11:36:12;;;;;;;9.88;2.92;;;;;;;;;;4983500;28;20038;-48
2023/05/26 11:38:38;;;;;;;8.82;3.35;;;;;;;;;;4982859;28;20033;-46
2023/05/26 11:41:08;;;;;;;13.50;3.20;;;;;;;;;;4981734;28;20066;-48
2023/05/26 11:43:35;;;;;;;6.55;2.63;;;;;;;;;;4982726;28;20027;-46
2023/05/26 11:46:02;;;;;;;8.75;3.13;;;;;;;;;;4983098;28;20412;-51
2023/05/26 11:48:36;;;;;;;7.72;3.33;;;;;;;;;;4985271;28;20026;-49
2023/05/26 11:51:12;;;;;;;11.05;3.53;;;;;;;;;;4977607;28;20045;-49
2023/05/26 11:53:39;;;;;;;9.20;2.97;;;;;;;;;;4978446;28;20030;-50
2023/05/26 11:56:06;;;;;;;6.55;2.72;;;;;;;;;;4983111;28;20046;-50
2023/05/26 11:58:34;;;;;;;5.43;2.70;;;;;;;;;;4979149;28;20026;-51
2023/05/26 12:01:00;;;;;;;6.10;3.15;;;;;;;;;;4984426;28;20038;-51
2023/05/26 12:03:25;;;;;;;9.80;3.35;;;;;;;;;;4979746;28;20070;-45
2023/05/26 12:05:51;;;;;;;11.88;3.28;;;;;;;;;;4985811;28;20061;-52
2023/05/26 12:08:16;;;;;;;9.50;3.10;;;;;;;;;;4983165;28;20011;-45
2023/05/26 12:10:42;;;;;;;6.72;3.40;;;;;;;;;;4983986;28;20050;-51
2023/05/26 12:13:08;;;;;;;8.35;3.00;;;;;;;;;;4980178;28;20057;-50
2023/05/26 12:15:34;;;;;;;4.72;2.67;;;;;;;;;;4979109;28;20545;-46
2023/05/26 12:18:02;;;;;;;3.72;2.60;;;;;;;;;;4984869;28;20068;-48
2023/05/26 12:20:27;;;;;;;5.47;3.08;;;;;;;;;;4983557;28;20426;-45
2023/05/26 12:23:02;;;;;;;7.45;3.25;;;;;;;;;;4984507;28;20044;-43
2023/05/26 12:25:31;;;;;;;9.45;2.90;;;;;;;;;;4981639;28;20150;-47
2023/05/26 12:27:57;;;;;;;5.57;2.85;;;;;;;;;;4982783;28;20463;-47
2023/05/26 12:30:33;;;;;;;6.30;2.83;;;;;;;;;;4980711;28;20062;-45
2023/05/26 12:32:58;;;;;;;9.13;3.20;;;;;;;;;;4982558;28;20114;-46
2023/05/26 12:35:24;;;;;;;4.68;2.83;;;;;;;;;;4979149;28;20109;-43
2023/05/26 12:37:49;;;;;;;6.50;2.90;;;;;;;;;;4978673;28;20593;-44
2023/05/26 12:40:15;;;;;;;8.52;2.90;;;;;;;;;;4983817;28;20030;-47
2023/05/26 12:42:40;;;;;;;7.18;2.90;;;;;;;;;;4984935;28;20121;-47
2023/05/26 12:45:07;;;;;;;5.32;2.78;;;;;;;;;;4984127;28;20034;-45
2023/05/26 12:47:33;;;;;;;9.20;3.35;;;;;;;;;;4983180;28;20045;-48
2023/05/26 12:49:58;;;;;;;6.63;2.78;;;;;;;;;;4979617;28;20113;-44
2023/05/26 12:52:24;;;;;;;18.95;3.85;;;;;;;;;;4978718;28;20038;-49
2023/05/26 12:54:49;;;;;;;12.88;3.80;;;;;;;;;;4982118;28;20046;-45
2023/05/26 12:57:14;;;;;;;8.68;3.50;;;;;;;;;;4979791;28;20117;-42
2023/05/26 12:59:41;;;;;;;10.13;3.38;;;;;;;;;;4982972;28;20022;-45
2023/05/26 13:02:07;;;;;;;14.45;4.05;;;;;;;;;;4983026;28;20035;-45
2023/05/26 13:04:32;;;;;;;9.48;3.63;;;;;;;;;;4991384;28;20039;-45
2023/05/26 13:06:58;;;;;;;7.43;3.35;;;;;;;;;;4986552;28;20041;-44
2023/05/26 13:09:26;;;;;;;9.05;3.60;;;;;;;;;;4984354;28;20380;-43
2023/05/26 13:11:51;;;;;;;12.52;4.13;;;;;;;;;;4986567;28;20566;-44
2023/05/26 13:14:18;;;;;;;5.93;3.20;;;;;;;;;;4985032;28;20050;-45
2023/05/26 13:16:44;;;;;;;8.75;4.18;;;;;;;;;;4984315;28;20102;-43
2023/05/26 13:19:10;;;;;;;12.40;4.10;;;;;;;;;;4986729;28;20114;-51
2023/05/26 13:21:36;;;;;;;12.93;3.85;;;;;;;;;;4984808;28;20117;-49
2023/05/26 13:24:02;;;;;;;11.70;4.10;;;;;;;;;;4985989;28;20030;-44
2023/05/26 13:26:28;;;;;;;13.45;3.70;;;;;;;;;;4987053;28;20092;-44
2023/05/26 13:28:54;;;;;;;12.63;4.00;;;;;;;;;;4983851;28;20058;-48
2023/05/26 13:31:20;;;;;;;6.38;3.25;;;;;;;;;;4986622;28;20668;-49
2023/05/26 13:33:45;;;;;;;6.93;3.72;;;;;;;;;;4985329;28;20073;-47
2023/05/26 13:36:11;;;;;;;10.43;4.03;;;;;;;;;;4987825;28;20042;-44
2023/05/26 13:38:37;;;;;;;10.43;4.20;;;;;;;;;;4987161;28;20049;-48
2023/05/26 13:41:02;;;;;;;8.02;4.07;;;;;;;;;;4979500;28;20706;-44
2023/05/26 13:43:28;;;;;;;15.65;4.10;;;;;;;;;;4984883;28;20035;-46
2023/05/26 13:45:53;;;;;;;3.80;3.05;;;;;;;;;;4986123;28;20057;-45
2023/05/26 13:48:19;;;;;;;11.57;4.28;;;;;;;;;;4986172;28;20049;-46
2023/05/26 13:50:44;;;;;;;8.82;4.18;;;;;;;;;;4985212;28;20187;-51
2023/05/26 13:53:10;;;;;;;6.97;3.88;;;;;;;;;;4985242;28;20026;-47
2023/05/26 13:55:36;;;;;;;11.52;4.28;;;;;;;;;;4981710;28;20085;-42
2023/05/26 13:58:02;;;;;;;9.98;3.92;;;;;;;;;;4984274;28;20114;-45
2023/05/26 14:00:27;;;;;;;11.38;4.03;;;;;;;;;;4987864;28;20113;-47
2023/05/26 14:02:53;;;;;;;13.73;4.10;;;;;;;;;;4986685;28;20070;-48
2023/05/26 14:05:18;;;;;;;7.97;3.72;;;;;;;;;;4984404;28;20031;-47
2023/05/26 14:07:45;;;;;;;13.80;3.92;;;;;;;;;;4984466;28;20145;-45
2023/05/26 14:10:10;;;;;;;9.65;4.10;;;;;;;;;;4983561;28;20054;-46
2023/05/26 14:12:36;;;;;;;15.85;4.13;;;;;;;;;;4985570;28;20046;-50
2023/05/26 14:15:04;;;;;;;11.80;4.13;;;;;;;;;;4986277;28;20034;-45
2023/05/26 14:17:30;;;;;;;9.27;3.63;;;;;;;;;;4983613;28;20104;-48
2023/05/26 14:19:55;;;;;;;8.60;3.70;;;;;;;;;;4986629;28;20027;-51
2023/05/26 14:22:20;;;;;;;7.28;3.25;;;;;;;;;;4983350;28;20035;-46
2023/05/26 14:24:46;;;;;;;12.27;4.57;;;;;;;;;;4985686;28;20058;-45
2023/05/26 14:27:11;;;;;;;9.50;4.18;;;;;;;;;;5015195;28;20042;-46
2023/05/26 14:29:37;;;;;;;6.68;3.20;;;;;;;;;;4984954;28;20022;-44
2023/05/26 14:32:02;;;;;;;9.00;3.42;;;;;;;;;;4983674;28;20046;-43
2023/05/26 14:34:27;;;;;;;12.77;3.30;;;;;;;;;;4985502;28;20080;-43
2023/05/26 14:36:53;;;;;;;9.93;3.65;;;;;;;;;;4979744;28;20416;-49